• Join FlightAware (Why Join?)
  • Login
  • US Flag 
03:13AM EDT


 

Airport Tracker/Info


-or-


 

Live Flight TrackerFlight Track Log ✈ TVD272 ✈ 16-Feb-2012 ✈ KBFI - KEAT

Flight Track Log - Related Links

Times and Time Zones

All times are in EST time to prevent confusion due to time zone crossing. See the TVD272 flight status page for this flight to view local times or setup timezone preferences in your user account.

Time Position Orientation Groundspeed Altitude Reporting Facility
EST Latitude Longitude Course Direction KTS MPH feet Rate Location/Type
05:52PM 47.5158 -122.2953 42° Northeast 102 117 800  Level Seattle Center
05:52PM 47.5167 -122.2942 143° Southeast 112 129 800 720 Level Seattle Center
05:53PM 47.4947 -122.2694 146° Southeast 103 119 1,600 780 Climbing Seattle Center
05:54PM 47.4664 -122.2408 131° Southeast 104 120 2,500 780 Climbing Seattle Center
05:55PM 47.4461 -122.2067 98° East 114 131 3,200 720 Climbing Seattle Center
05:56PM 47.4411 -122.1536 102° East 136 157 4,000 660 Climbing Seattle Center
05:57PM 47.4331 -122.0997 92° East 138 159 4,600 720 Climbing Seattle Center
05:58PM 47.4317 -122.0406 89° East 147 169 5,500 840 Climbing Seattle Center
05:59PM 47.4322 -121.9847 97° East 140 161 6,400 780 Climbing Seattle Center
06:00PM 47.4275 -121.9292 94° East 138 159 7,100 780 Climbing Seattle Center
06:01PM 47.4236 -121.8508 97° East 139 160 8,200 840 Climbing Seattle Center
06:02PM 47.4192 -121.7939 96° East 140 161 9,000 780 Climbing Seattle Center
06:03PM 47.4147 -121.7353 97° East 144 166 9,800 540 Climbing Seattle Center
06:04PM 47.4097 -121.6711 99° East 157 181 10,200 480 Climbing Seattle Center
06:06PM 47.4025 -121.6053 93° East 165 190 10,900 600 Climbing Seattle Center
06:07PM 47.4003 -121.5383 93° East 166 191 11,500 240 Climbing Seattle Center
06:08PM 47.3967 -121.4514 93° East 179 206 11,500  Level Seattle Center
06:09PM 47.3936 -121.3744 93° East 184 212 11,500  Level Seattle Center
06:10PM 47.3908 -121.3003 95° East 187 215 11,500  Level Seattle Center
06:11PM 47.3864 -121.2253 94° East 186 214 11,600  Climbing Seattle Center
06:12PM 47.3828 -121.1489 92° East 189 217 11,500 -60 Descending Seattle Center
06:13PM 47.3811 -121.0750 92° East 184 212 11,500 -60 Level Seattle Center
06:14PM 47.3792 -120.9997 95° East 185 213 11,400  Descending Seattle Center
06:15PM 47.3736 -120.9142 96° East 178 205 11,600 60 Climbing Seattle Center
06:16PM 47.3683 -120.8394 87° East 184 212 11,600 -60 Level Seattle Center
06:17PM 47.3708 -120.7717 83° East 183 211 11,500 -60 Descending Seattle Center
06:18PM 47.3767 -120.6961 83° East 183 211 11,500  Level Seattle Center
06:19PM 47.3825 -120.6231 82° East 181 208 11,500  Level Seattle Center
06:20PM 47.3914 -120.5319 80° East 185 213 11,500 -240 Level Seattle Center
06:21PM 47.4006 -120.4547 80° East 189 217 11,100 -420 Descending Seattle Center